createdAt,value
2019-04-03T00:00:04.393Z,977.51
2019-04-03T00:01:04.842Z,977.51
2019-04-03T00:02:04.933Z,977.51
2019-04-03T00:03:04.686Z,977.47
2019-04-03T00:04:04.709Z,977.46
2019-04-03T00:05:04.591Z,977.47
2019-04-03T00:06:09.053Z,977.48
2019-04-03T00:07:05.558Z,977.44
2019-04-03T00:08:06.009Z,977.39
2019-04-03T00:09:06.426Z,977.40
2019-04-03T00:10:06.626Z,977.40
2019-04-03T00:11:08.562Z,977.40
2019-04-03T00:12:06.930Z,977.42
2019-04-03T00:13:05.516Z,977.36
2019-04-03T00:14:05.722Z,977.37
2019-04-03T00:15:05.942Z,977.36
2019-04-03T00:16:06.163Z,977.34
2019-04-03T00:17:06.387Z,977.30
2019-04-03T00:18:06.510Z,977.30
2019-04-03T00:19:06.725Z,977.34
2019-04-03T00:20:06.977Z,977.31
2019-04-03T00:21:07.162Z,977.34
2019-04-03T00:22:07.264Z,977.35
2019-04-03T00:23:07.570Z,977.29
2019-04-03T00:24:07.697Z,977.29
2019-04-03T00:25:07.949Z,977.26
2019-04-03T00:26:08.103Z,977.29
2019-04-03T00:27:09.309Z,977.27
2019-04-03T00:28:08.527Z,977.28
2019-04-03T00:29:08.741Z,977.23
2019-04-03T00:30:09.061Z,977.24
2019-04-03T00:31:10.940Z,977.24
2019-04-03T00:32:09.270Z,977.25
2019-04-03T00:33:09.468Z,977.22
2019-04-03T00:34:09.676Z,977.26
2019-04-03T00:35:09.896Z,977.25
2019-04-03T00:36:10.113Z,977.22
2019-04-03T00:37:10.326Z,977.24
2019-04-03T00:38:10.537Z,977.26
2019-04-03T00:39:10.897Z,977.25
2019-04-03T00:40:10.962Z,977.29
2019-04-03T00:41:11.165Z,977.23
2019-04-03T00:42:11.389Z,977.23
2019-04-03T00:43:11.590Z,977.20
2019-04-03T00:44:11.806Z,977.21
2019-04-03T00:45:13.934Z,977.16
2019-04-03T00:46:12.138Z,977.14
2019-04-03T00:47:13.942Z,977.14
2019-04-03T00:48:12.534Z,977.12
2019-04-03T00:49:14.446Z,977.14
2019-04-03T00:50:12.885Z,977.12
2019-04-03T00:51:15.061Z,977.11
2019-04-03T00:52:14.933Z,977.06
2019-04-03T00:53:14.941Z,977.07
2019-04-03T00:54:13.535Z,977.05
2019-04-03T00:55:13.742Z,977.05
2019-04-03T00:56:13.955Z,977.05
2019-04-03T00:57:14.173Z,977.07
2019-04-03T00:58:14.468Z,977.08
2019-04-03T00:59:14.586Z,977.06
2019-04-03T01:00:16.439Z,977.03
2019-04-03T01:01:15.030Z,977.04
2019-04-03T01:02:16.940Z,977.03
2019-04-03T01:03:15.408Z,977.00
2019-04-03T01:04:15.622Z,977.03
2019-04-03T01:05:15.834Z,976.99
2019-04-03T01:06:19.932Z,977.02
2019-04-03T01:07:16.261Z,976.96
2019-04-03T01:08:16.468Z,977.01
2019-04-03T01:09:16.698Z,977.00
2019-04-03T01:10:16.785Z,976.97
2019-04-03T01:11:16.992Z,976.97
2019-04-03T01:12:17.351Z,976.97
2019-04-03T01:13:17.441Z,976.97
2019-04-03T01:14:19.447Z,976.99
2019-04-03T01:15:17.770Z,976.97
2019-04-03T01:16:17.980Z,977.01
2019-04-03T01:17:19.080Z,976.96
2019-04-03T01:18:19.945Z,976.97
2019-04-03T01:19:18.529Z,976.93
2019-04-03T01:20:20.441Z,976.89
2019-04-03T01:21:18.888Z,976.84
2019-04-03T01:22:19.087Z,976.84
2019-04-03T01:23:19.318Z,976.83
2019-04-03T01:24:19.750Z,976.78
2019-04-03T01:25:19.862Z,976.79
2019-04-03T01:26:19.953Z,976.80
2019-04-03T01:27:21.166Z,976.76
2019-04-03T01:28:20.366Z,976.77
2019-04-03T01:29:20.582Z,976.74
2019-04-03T01:30:20.795Z,976.72
2019-04-03T01:31:20.999Z,976.72
2019-04-03T01:32:21.206Z,976.68
2019-04-03T01:33:21.417Z,976.68
2019-04-03T01:34:23.440Z,976.66
2019-04-03T01:35:21.782Z,976.65
2019-04-03T01:36:21.984Z,976.64
2019-04-03T01:37:22.199Z,976.62
2019-04-03T01:38:22.403Z,976.60
2019-04-03T01:39:22.630Z,976.62
2019-04-03T01:40:22.888Z,976.65
2019-04-03T01:41:23.057Z,976.60
2019-04-03T01:42:26.948Z,976.62
2019-04-03T01:43:23.620Z,976.59
2019-04-03T01:44:24.703Z,976.57
2019-04-03T01:45:25.612Z,976.54
2019-04-03T01:46:24.047Z,976.51
2019-04-03T01:47:24.280Z,976.51
2019-04-03T01:48:24.476Z,976.55
2019-04-03T01:49:24.690Z,976.53
2019-04-03T01:50:24.903Z,976.54
2019-04-03T01:51:25.113Z,976.47
2019-04-03T01:52:25.330Z,976.45
2019-04-03T01:53:25.541Z,976.48
2019-04-03T01:54:25.748Z,976.43
2019-04-03T01:55:25.959Z,976.41
2019-04-03T01:56:26.177Z,976.40
2019-04-03T01:57:26.386Z,976.43
2019-04-03T01:58:28.434Z,976.42
2019-04-03T01:59:26.780Z,976.42
2019-04-03T02:00:26.993Z,976.47
2019-04-03T02:01:27.209Z,976.51
2019-04-03T02:02:27.471Z,976.47
2019-04-03T02:03:27.618Z,976.49
2019-04-03T02:04:27.963Z,976.45
2019-04-03T02:05:28.038Z,976.48
2019-04-03T02:06:28.258Z,976.44
2019-04-03T02:07:28.486Z,976.41
2019-04-03T02:08:28.679Z,976.39
2019-04-03T02:09:28.955Z,976.39
2019-04-03T02:10:29.079Z,976.35
2019-04-03T02:11:30.937Z,976.36
2019-04-03T02:12:31.453Z,976.31
2019-04-03T02:13:29.690Z,976.28
2019-04-03T02:14:31.440Z,976.27
2019-04-03T02:15:30.034Z,976.28
2019-04-03T02:16:30.289Z,976.26
2019-04-03T02:17:30.476Z,976.23
2019-04-03T02:18:30.704Z,976.22
2019-04-03T02:19:30.930Z,976.26
2019-04-03T02:20:31.152Z,976.20
2019-04-03T02:21:31.359Z,976.25
2019-04-03T02:22:31.574Z,976.27
2019-04-03T02:23:33.468Z,976.27
2019-04-03T02:24:33.440Z,976.26
2019-04-03T02:25:32.320Z,976.26
2019-04-03T02:26:33.942Z,976.30
2019-04-03T02:27:33.945Z,976.25
2019-04-03T02:28:35.206Z,976.28
2019-04-03T02:29:32.653Z,976.26
2019-04-03T02:30:32.946Z,976.23
2019-04-03T02:31:33.085Z,976.22
2019-04-03T02:32:33.393Z,976.25
2019-04-03T02:33:35.457Z,976.23
2019-04-03T02:34:35.472Z,976.24
2019-04-03T02:35:38.781Z,976.22
2019-04-03T02:36:34.024Z,976.21
2019-04-03T02:37:36.135Z,976.16
2019-04-03T02:38:34.408Z,976.16
2019-04-03T02:39:34.613Z,976.16
2019-04-03T02:40:35.055Z,976.10
2019-04-03T02:41:37.545Z,976.12
2019-04-03T02:42:40.264Z,976.11
2019-04-03T02:43:35.427Z,976.07
2019-04-03T02:44:37.445Z,976.04
2019-04-03T02:45:35.909Z,976.03
2019-04-03T02:46:37.961Z,976.05
2019-04-03T02:47:36.151Z,976.07
2019-04-03T02:48:38.780Z,976.00
2019-04-03T02:49:36.540Z,976.03
2019-04-03T02:50:36.743Z,976.01
2019-04-03T02:51:38.946Z,976.00
2019-04-03T02:52:37.214Z,975.98
2019-04-03T02:53:37.365Z,975.98
2019-04-03T02:54:37.594Z,975.93
2019-04-03T02:55:39.708Z,975.95
2019-04-03T02:56:39.941Z,975.93
2019-04-03T02:57:39.967Z,975.92
2019-04-03T02:58:38.297Z,975.89
2019-04-03T02:59:40.438Z,975.90
2019-04-03T03:00:38.642Z,975.90
2019-04-03T03:01:40.262Z,975.88
2019-04-03T03:02:39.066Z,975.86
2019-04-03T03:03:39.278Z,975.85
2019-04-03T03:04:39.494Z,975.85
2019-04-03T03:05:41.449Z,975.84
2019-04-03T03:06:41.689Z,975.85
2019-04-03T03:07:42.022Z,975.82
2019-04-03T03:08:41.916Z,975.85
2019-04-03T03:09:40.358Z,975.90
2019-04-03T03:10:42.459Z,975.93
2019-04-03T03:11:40.822Z,975.89
2019-04-03T03:12:41.117Z,975.93
2019-04-03T03:13:41.194Z,975.92
2019-04-03T03:14:41.392Z,975.91
2019-04-03T03:15:44.294Z,975.91
2019-04-03T03:16:41.830Z,975.96
2019-04-03T03:17:42.045Z,975.88
2019-04-03T03:18:42.261Z,975.95
2019-04-03T03:19:42.579Z,975.93
2019-04-03T03:20:42.837Z,975.96
2019-04-03T03:21:44.695Z,975.94
2019-04-03T03:22:43.076Z,975.97
2019-04-03T03:23:44.954Z,975.98
2019-04-03T03:24:43.413Z,975.99
2019-04-03T03:25:45.637Z,975.95
2019-04-03T03:26:45.446Z,975.96
2019-04-03T03:27:44.069Z,975.94
2019-04-03T03:28:47.388Z,975.92
2019-04-03T03:29:44.273Z,975.93
2019-04-03T03:30:54.899Z,975.95
2019-04-03T03:32:06.333Z,975.98
2019-04-03T03:32:45.203Z,975.97
2019-04-03T03:33:45.383Z,975.94
2019-04-03T03:34:57.286Z,975.91
2019-04-03T03:35:48.028Z,975.93
2019-04-03T03:36:45.993Z,975.92
2019-04-03T03:37:46.143Z,975.90
2019-04-03T03:38:46.228Z,975.92
2019-04-03T03:39:48.174Z,975.86
2019-04-03T03:40:48.598Z,975.90
2019-04-03T03:41:49.453Z,975.90
2019-04-03T03:42:48.453Z,975.88
2019-04-03T03:43:50.941Z,975.93
2019-04-03T03:44:47.214Z,975.89
2019-04-03T03:45:51.723Z,975.96
2019-04-03T03:46:47.578Z,975.90
2019-04-03T03:47:47.841Z,975.92
2019-04-03T03:48:48.003Z,975.92
2019-04-03T03:49:49.683Z,975.91
2019-04-03T03:50:48.336Z,975.91
2019-04-03T03:51:48.548Z,975.95
2019-04-03T03:52:50.685Z,975.91
2019-04-03T03:53:48.953Z,975.91
2019-04-03T03:54:51.105Z,975.88
2019-04-03T03:55:49.360Z,975.82
2019-04-03T03:56:49.584Z,975.82
2019-04-03T03:57:49.789Z,975.82
2019-04-03T03:58:50.017Z,975.84
2019-04-03T03:59:52.655Z,975.83
2019-04-03T04:00:52.263Z,975.81
2019-04-03T04:01:50.759Z,975.85
2019-04-03T04:02:50.822Z,975.85
2019-04-03T04:03:51.087Z,975.84
2019-04-03T04:04:52.964Z,975.89
2019-04-03T04:05:54.683Z,975.88
2019-04-03T04:06:51.661Z,975.88
2019-04-03T04:07:52.075Z,975.88
2019-04-03T04:08:52.068Z,975.87
2019-04-03T04:09:54.132Z,975.87
2019-04-03T04:10:58.154Z,975.81
2019-04-03T04:11:54.488Z,975.85
2019-04-03T04:12:52.652Z,975.84
2019-04-03T04:13:52.934Z,975.82
2019-04-03T04:14:56.091Z,975.84
2019-04-03T04:15:55.135Z,975.84
2019-04-03T04:16:54.956Z,975.86
2019-04-03T04:17:55.841Z,975.81
2019-04-03T04:18:57.294Z,975.85
2019-04-03T04:19:54.161Z,975.87
2019-04-03T04:20:58.118Z,975.83
2019-04-03T04:21:54.167Z,975.86
2019-04-03T04:22:54.381Z,975.86
2019-04-03T04:23:55.892Z,975.86
2019-04-03T04:24:54.807Z,975.92
2019-04-03T04:25:55.020Z,975.92
2019-04-03T04:26:55.236Z,975.94
2019-04-03T04:27:55.449Z,975.94
2019-04-03T04:28:57.448Z,975.95
2019-04-03T04:29:55.842Z,975.98
2019-04-03T04:30:56.061Z,975.98
2019-04-03T04:31:56.217Z,975.91
2019-04-03T04:32:56.631Z,975.95
2019-04-03T04:33:56.666Z,975.93
2019-04-03T04:34:56.877Z,975.95
2019-04-03T04:35:57.053Z,975.97
2019-04-03T04:36:57.264Z,975.98
2019-04-03T04:37:57.605Z,975.97
2019-04-03T04:38:59.461Z,975.95
2019-04-03T04:39:59.603Z,976.00
2019-04-03T04:40:58.124Z,975.97
2019-04-03T04:41:58.338Z,976.02
2019-04-03T04:42:58.594Z,975.98
2019-04-03T04:44:00.448Z,975.97
2019-04-03T04:45:01.589Z,975.97
2019-04-03T04:45:59.032Z,975.99
2019-04-03T04:46:59.340Z,975.99
2019-04-03T04:47:59.463Z,976.02
2019-04-03T04:48:59.604Z,976.01
2019-04-03T04:50:01.448Z,976.04
2019-04-03T04:51:00.947Z,976.05
2019-04-03T04:52:01.314Z,976.10
2019-04-03T04:53:00.340Z,976.06
2019-04-03T04:54:00.593Z,976.13
2019-04-03T04:55:02.862Z,976.10
2019-04-03T04:56:02.450Z,976.11
2019-04-03T04:57:01.043Z,976.11
2019-04-03T04:58:04.790Z,976.13
2019-04-03T04:59:02.954Z,976.13
2019-04-03T05:00:01.399Z,976.13
2019-04-03T05:01:01.610Z,976.15
2019-04-03T05:02:01.824Z,976.14
2019-04-03T05:03:02.217Z,976.11
2019-04-03T05:04:02.240Z,976.15
2019-04-03T05:05:02.488Z,976.15
2019-04-03T05:06:04.455Z,976.18
2019-04-03T05:07:02.829Z,976.14
2019-04-03T05:08:02.894Z,976.15
2019-04-03T05:09:03.888Z,976.17
2019-04-03T05:10:05.362Z,976.17
2019-04-03T05:11:07.310Z,976.20
2019-04-03T05:12:05.445Z,976.14
2019-04-03T05:13:04.787Z,976.15
2019-04-03T05:14:04.010Z,976.19
2019-04-03T05:15:04.225Z,976.18
2019-04-03T05:16:05.986Z,976.19
2019-04-03T05:17:04.660Z,976.20
2019-04-03T05:18:08.455Z,976.26
2019-04-03T05:19:09.999Z,976.21
2019-04-03T05:20:05.277Z,976.21
2019-04-03T05:21:05.465Z,976.22
2019-04-03T05:22:05.568Z,976.20
2019-04-03T05:23:07.451Z,976.21
2019-04-03T05:24:13.163Z,976.19
2019-04-03T05:25:06.169Z,976.20
2019-04-03T05:26:07.963Z,976.20
2019-04-03T05:27:07.923Z,976.19
2019-04-03T05:28:06.747Z,976.21
2019-04-03T05:29:06.954Z,976.16
2019-04-03T05:30:07.164Z,976.15
2019-04-03T05:31:08.043Z,976.16
2019-04-03T05:32:09.621Z,976.22
2019-04-03T05:33:10.608Z,976.24
2019-04-03T05:34:08.003Z,976.17
2019-04-03T05:35:08.402Z,976.15
2019-04-03T05:36:08.432Z,976.19
2019-04-03T05:37:11.426Z,976.16
2019-04-03T05:38:10.455Z,976.20
2019-04-03T05:39:12.947Z,976.23
2019-04-03T05:40:09.150Z,976.22
2019-04-03T05:41:09.479Z,976.17
2019-04-03T05:42:11.459Z,976.19
2019-04-03T05:43:09.804Z,976.21
2019-04-03T05:44:13.959Z,976.18
2019-04-03T05:45:10.143Z,976.23
2019-04-03T05:46:11.968Z,976.17
2019-04-03T05:47:10.669Z,976.15
2019-04-03T05:48:13.352Z,976.18
2019-04-03T05:49:11.083Z,976.14
2019-04-03T05:50:11.371Z,976.16
2019-04-03T05:51:11.620Z,976.14
2019-04-03T05:52:11.529Z,976.16
2019-04-03T05:53:13.451Z,976.17
2019-04-03T05:54:14.187Z,976.16
2019-04-03T05:55:11.991Z,976.18
2019-04-03T05:56:12.720Z,976.16
2019-04-03T05:57:14.059Z,976.21
2019-04-03T05:58:16.489Z,976.22
2019-04-03T05:59:12.790Z,976.23
2019-04-03T06:00:14.952Z,976.23
2019-04-03T06:01:14.947Z,976.23
2019-04-03T06:02:16.832Z,976.24
2019-04-03T06:03:16.954Z,976.22
2019-04-03T06:04:13.704Z,976.18
2019-04-03T06:05:18.522Z,976.21
2019-04-03T06:06:15.032Z,976.22
2019-04-03T06:07:14.111Z,976.19
2019-04-03T06:08:14.330Z,976.19
2019-04-03T06:09:14.644Z,976.18
2019-04-03T06:10:16.455Z,976.20
2019-04-03T06:11:14.921Z,976.20
2019-04-03T06:12:18.125Z,976.23
2019-04-03T06:13:17.608Z,976.29
2019-04-03T06:14:18.216Z,976.31
2019-04-03T06:15:17.466Z,976.30
2019-04-03T06:16:16.805Z,976.31
2019-04-03T06:17:17.960Z,976.34
2019-04-03T06:18:17.761Z,976.30
2019-04-03T06:19:16.505Z,976.31
2019-04-03T06:20:16.700Z,976.29
2019-04-03T06:21:16.907Z,976.32
2019-04-03T06:22:20.927Z,976.36
2019-04-03T06:23:21.427Z,976.33
2019-04-03T06:24:18.033Z,976.37
2019-04-03T06:25:17.783Z,976.37
2019-04-03T06:26:17.989Z,976.31
2019-04-03T06:27:19.642Z,976.36
2019-04-03T06:28:18.392Z,976.34
2019-04-03T06:29:19.331Z,976.36
2019-04-03T06:30:19.864Z,976.36
2019-04-03T06:31:21.083Z,976.38
2019-04-03T06:32:23.695Z,976.34
2019-04-03T06:33:20.175Z,976.37
2019-04-03T06:34:30.638Z,976.39
2019-04-03T06:35:21.625Z,976.36
2019-04-03T06:36:19.932Z,976.39
2019-04-03T06:37:22.277Z,976.39
2019-04-03T06:38:24.602Z,976.37
2019-04-03T06:39:23.530Z,976.38
2019-04-03T06:40:20.617Z,976.39
2019-04-03T06:41:20.749Z,976.37
2019-04-03T06:42:44.959Z,976.37
2019-04-03T06:43:21.085Z,976.35
2019-04-03T06:44:23.111Z,976.38
2019-04-03T06:45:21.456Z,976.38
2019-04-03T06:46:23.461Z,976.35
2019-04-03T06:47:21.869Z,976.38
2019-04-03T06:48:25.465Z,976.38
2019-04-03T06:49:22.305Z,976.33
2019-04-03T06:50:23.952Z,976.34
2019-04-03T06:51:25.952Z,976.33
2019-04-03T06:52:29.723Z,976.28
2019-04-03T06:53:25.783Z,976.28
2019-04-03T06:54:24.515Z,976.24
2019-04-03T06:55:31.220Z,976.24
2019-04-03T06:56:23.191Z,976.19
2019-04-03T06:57:24.950Z,976.14
2019-04-03T06:58:34.119Z,976.19
2019-04-03T06:59:25.485Z,976.20
2019-04-03T07:00:27.496Z,976.21
2019-04-03T07:01:25.958Z,976.23
2019-04-03T07:02:27.113Z,976.26
2019-04-03T07:03:25.955Z,976.25
2019-04-03T07:04:27.994Z,976.27
2019-04-03T07:05:27.767Z,976.21
2019-04-03T07:06:26.566Z,976.22
2019-04-03T07:07:33.534Z,976.24
2019-04-03T07:08:32.521Z,976.23
2019-04-03T07:09:35.589Z,976.26
2019-04-03T07:10:26.968Z,976.21
2019-04-03T07:11:28.954Z,976.28
2019-04-03T08:09:33.284Z,976.15
2019-04-03T08:37:29.582Z,976.10
2019-04-03T08:38:14.533Z,976.10
2019-04-03T08:50:24.237Z,976.08
2019-04-03T08:59:12.852Z,976.02
2019-04-03T09:04:58.811Z,976.02
2019-04-03T09:05:50.546Z,976.06
2019-04-03T09:06:44.506Z,976.04
2019-04-03T09:10:58.479Z,975.91
2019-04-03T09:12:24.346Z,975.90
2019-04-03T09:13:17.673Z,975.89
2019-04-03T09:14:06.789Z,975.87
2019-04-03T09:17:15.844Z,975.79
2019-04-03T09:17:30.132Z,975.80
2019-04-03T09:22:07.852Z,975.68
2019-04-03T09:22:44.603Z,975.63
2019-04-03T09:23:40.312Z,975.67
2019-04-03T09:24:58.375Z,975.64
2019-04-03T09:25:36.980Z,975.66
2019-04-03T09:26:51.958Z,975.67
2019-04-03T09:29:30.956Z,975.69
2019-04-03T09:30:11.928Z,975.66
2019-04-03T09:32:49.789Z,975.61
2019-04-03T09:35:25.400Z,975.65
2019-04-03T09:38:15.235Z,975.69
2019-04-03T09:38:57.210Z,975.64
2019-04-03T09:41:26.337Z,975.59
2019-04-03T09:42:27.640Z,975.66
2019-04-03T09:43:40.401Z,975.66
2019-04-03T09:44:25.728Z,975.65
2019-04-03T09:45:28.138Z,975.60
2019-04-03T09:46:25.874Z,975.64
2019-04-03T09:47:21.372Z,975.63
2019-04-03T09:48:22.425Z,975.60
2019-04-03T09:52:52.515Z,975.66
2019-04-03T09:53:41.038Z,975.70
2019-04-03T09:54:41.915Z,975.65
2019-04-03T09:57:14.377Z,975.63
2019-04-03T09:58:12.658Z,975.53
2019-04-03T09:59:15.021Z,975.52
2019-04-03T10:00:13.644Z,975.49
2019-04-03T10:01:19.918Z,975.55
2019-04-03T10:02:37.105Z,975.44
2019-04-03T10:03:16.681Z,975.47
2019-04-03T10:06:11.866Z,975.37
2019-04-03T10:07:13.754Z,975.34
2019-04-03T10:07:52.755Z,975.35
2019-04-03T10:09:02.037Z,975.39
2019-04-03T10:10:14.064Z,975.34
2019-04-03T10:10:47.098Z,975.34
2019-04-03T10:11:53.502Z,975.36
2019-04-03T10:13:09.461Z,975.39
2019-04-03T10:14:15.502Z,975.46
2019-04-03T10:14:50.727Z,975.57
2019-04-03T10:15:57.185Z,975.67
2019-04-03T10:16:49.778Z,975.62
2019-04-03T10:18:10.921Z,975.60
2019-04-03T10:18:54.771Z,975.58
2019-04-03T10:20:17.284Z,975.57
2019-04-03T10:21:19.199Z,975.47
2019-04-03T10:21:47.927Z,975.48
2019-04-03T10:23:10.407Z,975.43
2019-04-03T10:24:03.512Z,975.39
2019-04-03T10:24:52.030Z,975.39
2019-04-03T10:25:56.934Z,975.39
2019-04-03T10:26:55.987Z,975.42
2019-04-03T10:29:49.216Z,975.30
2019-04-03T10:30:24.959Z,975.28
2019-04-03T10:31:25.233Z,975.25
2019-04-03T10:34:33.320Z,975.20
2019-04-03T10:35:30.631Z,975.21
2019-04-03T10:35:54.085Z,975.24
2019-04-03T10:36:56.067Z,975.20
2019-04-03T10:37:54.488Z,975.20
2019-04-03T10:38:56.879Z,975.21
2019-04-03T10:39:56.520Z,975.25
2019-04-03T10:40:58.604Z,975.28
2019-04-03T10:42:00.399Z,975.29
2019-04-03T10:42:59.858Z,975.28
2019-04-03T10:43:57.015Z,975.30
2019-04-03T10:44:55.736Z,975.24
2019-04-03T10:45:56.306Z,975.26
2019-04-03T10:46:59.069Z,975.25
2019-04-03T10:47:56.797Z,975.24
2019-04-03T10:49:00.479Z,975.26
2019-04-03T10:49:58.650Z,975.30
2019-04-03T10:50:58.560Z,975.26
2019-04-03T10:51:57.271Z,975.26
2019-04-03T10:52:57.540Z,975.22
2019-04-03T10:53:59.037Z,975.24
2019-04-03T10:54:59.522Z,975.22
2019-04-03T10:55:59.650Z,975.24
2019-04-03T10:56:57.975Z,975.23
2019-04-03T10:58:01.907Z,975.32
2019-04-03T10:59:10.285Z,975.30
2019-04-03T11:00:00.081Z,975.31
2019-04-03T11:01:00.523Z,975.33
2019-04-03T11:01:58.752Z,975.28
2019-04-03T11:02:58.946Z,975.30
2019-04-03T11:03:59.187Z,975.24
2019-04-03T11:05:00.536Z,975.33
2019-04-03T11:06:01.806Z,975.28
2019-04-03T11:07:00.768Z,975.29
2019-04-03T11:08:01.558Z,975.26
2019-04-03T11:09:06.584Z,975.32
2019-04-03T11:12:00.897Z,975.36
2019-04-03T11:12:48.700Z,975.26
2019-04-03T11:13:34.864Z,975.24
2019-04-03T11:14:34.308Z,975.28
2019-04-03T11:15:36.250Z,975.14
2019-04-03T11:16:38.651Z,975.20
2019-04-03T11:17:35.080Z,975.21
2019-04-03T11:18:33.433Z,975.22
2019-04-03T11:19:37.210Z,975.19
2019-04-03T11:20:36.823Z,975.21
2019-04-03T11:21:33.654Z,975.21
2019-04-03T11:22:40.422Z,975.20
2019-04-03T11:35:59.403Z,974.85
2019-04-03T11:37:01.701Z,974.82
2019-04-03T11:38:06.565Z,974.90
2019-04-03T11:39:11.277Z,974.92
2019-04-03T11:40:04.950Z,974.95
2019-04-03T11:40:58.117Z,974.98
2019-04-03T11:42:00.995Z,974.98
2019-04-03T11:43:14.272Z,975.00
2019-04-03T11:45:34.209Z,974.92
2019-04-03T11:46:54.637Z,974.94
2019-04-03T11:47:53.712Z,974.90
2019-04-03T11:48:55.676Z,974.94
2019-04-03T11:49:46.783Z,974.93
2019-04-03T11:50:40.151Z,974.90
2019-04-03T11:51:33.998Z,974.97
2019-04-03T11:52:34.284Z,974.92
2019-04-03T11:53:33.051Z,974.96
2019-04-03T11:54:33.997Z,974.91
2019-04-03T11:57:06.662Z,974.92
2019-04-03T11:58:04.851Z,974.89
2019-04-03T11:59:26.980Z,974.92
2019-04-03T12:00:07.612Z,974.93
2019-04-03T12:01:17.599Z,974.96
2019-04-03T12:02:21.169Z,974.96
2019-04-03T12:03:12.102Z,974.97
2019-04-03T12:04:31.276Z,974.96
2019-04-03T12:05:34.959Z,974.88
2019-04-03T12:06:42.700Z,974.90
2019-04-03T12:07:14.013Z,974.94
2019-04-03T12:08:29.455Z,974.88
2019-04-03T12:09:31.686Z,974.88
2019-04-03T12:12:19.692Z,974.92
2019-04-03T12:12:41.857Z,974.96
2019-04-03T12:13:39.852Z,974.93
2019-04-03T12:14:54.708Z,974.97
2019-04-03T12:15:42.255Z,975.08
2019-04-03T12:17:09.149Z,975.00
2019-04-03T12:17:55.525Z,975.10
2019-04-03T12:19:05.144Z,974.84
2019-04-03T12:19:40.529Z,974.78
2019-04-03T12:20:43.359Z,974.78
2019-04-03T12:21:43.524Z,974.78
2019-04-03T12:22:42.141Z,974.78
2019-04-03T12:27:18.455Z,974.67
2019-04-03T12:28:10.425Z,974.64
2019-04-03T12:28:49.034Z,974.68
2019-04-03T12:29:48.887Z,974.75
2019-04-03T12:31:11.728Z,974.98
2019-04-03T12:32:03.966Z,975.05
2019-04-03T12:32:50.137Z,974.82
2019-04-03T12:33:56.442Z,975.14
2019-04-03T12:34:48.767Z,975.17
2019-04-03T12:36:05.938Z,975.07
2019-04-03T12:36:51.603Z,974.94
2019-04-03T12:37:50.128Z,974.97
2019-04-03T12:38:47.741Z,974.69
2019-04-03T12:40:10.807Z,974.65
2019-04-03T12:40:50.474Z,974.65
2019-04-03T12:41:50.317Z,974.69
2019-04-03T12:43:12.237Z,974.63
2019-04-03T12:44:25.452Z,974.59
2019-04-03T12:45:04.362Z,974.62
2019-04-03T12:45:59.105Z,974.56
2019-04-03T12:46:51.488Z,974.57
2019-04-03T12:47:49.312Z,974.49
2019-04-03T12:48:52.087Z,974.51
2019-04-03T12:50:05.346Z,974.55
2019-04-03T12:51:20.182Z,974.55
2019-04-03T12:53:27.618Z,974.58
2019-04-03T12:54:48.443Z,974.50
2019-04-03T12:55:28.093Z,974.52
2019-04-03T12:56:30.915Z,974.54
2019-04-03T12:57:51.620Z,974.65
2019-04-03T12:58:24.593Z,974.48
2019-04-03T12:59:51.645Z,974.52
2019-04-03T13:00:26.903Z,974.38
2019-04-03T13:01:29.925Z,974.44
2019-04-03T13:02:24.599Z,974.42
2019-04-03T13:05:01.587Z,974.64
2019-04-03T13:06:14.870Z,974.68
2019-04-03T13:07:12.516Z,974.43
2019-04-03T13:08:21.770Z,974.41
2019-04-03T13:09:22.097Z,974.57
2019-04-03T13:10:19.093Z,974.41
2019-04-03T13:10:58.595Z,974.30
2019-04-03T13:12:00.171Z,974.31
2019-04-03T13:13:01.452Z,974.31
2019-04-03T13:14:07.086Z,974.27
2019-04-03T13:16:56.186Z,974.26
2019-04-03T13:17:55.765Z,974.20
2019-04-03T13:18:34.303Z,974.25
2019-04-03T13:19:35.432Z,974.28
2019-04-03T13:20:32.485Z,974.29
2019-04-03T13:21:34.967Z,974.28
2019-04-03T13:22:32.320Z,974.19
2019-04-03T13:23:55.719Z,974.20
2019-04-03T13:24:35.238Z,974.16
2019-04-03T13:25:36.774Z,974.18
2019-04-03T13:26:37.011Z,974.20
2019-04-03T13:29:21.860Z,974.24
2019-04-03T13:31:39.829Z,974.05
2019-04-03T13:34:13.378Z,974.47
2019-04-03T13:35:14.995Z,974.47
2019-04-03T13:36:19.698Z,974.26
2019-04-03T13:37:12.153Z,974.11
2019-04-03T13:38:13.788Z,974.19
2019-04-03T13:39:11.011Z,974.34
2019-04-03T13:40:11.446Z,974.14
2019-04-03T13:41:14.561Z,974.07
2019-04-03T13:42:12.730Z,974.07
2019-04-03T13:43:44.824Z,974.10
2019-04-03T13:44:12.956Z,974.09
2019-04-03T13:45:15.017Z,974.03
2019-04-03T13:46:14.826Z,973.99
2019-04-03T13:47:39.759Z,974.00
2019-04-03T13:48:14.404Z,973.98
2019-04-03T13:49:34.165Z,973.99
2019-04-03T13:51:48.949Z,974.00
2019-04-03T13:52:49.914Z,973.99
2019-04-03T13:53:47.170Z,973.95
2019-04-03T13:55:13.541Z,973.98
2019-04-03T13:55:44.918Z,973.97
2019-04-03T13:56:48.214Z,973.96
2019-04-03T13:58:08.049Z,973.90
2019-04-03T13:59:11.884Z,973.91
2019-04-03T14:00:20.637Z,973.86
2019-04-03T14:01:09.532Z,973.88
2019-04-03T14:01:54.130Z,973.77
2019-04-03T14:03:09.707Z,973.81
2019-04-03T14:05:22.457Z,973.79
2019-04-03T14:06:23.356Z,973.79
2019-04-03T14:07:23.966Z,973.77
2019-04-03T14:08:23.083Z,973.78
2019-04-03T14:09:25.120Z,973.75
2019-04-03T14:10:21.948Z,973.74
2019-04-03T14:11:23.290Z,973.75
2019-04-03T14:12:44.248Z,973.73
2019-04-03T14:13:32.638Z,973.74
2019-04-03T14:16:18.984Z,973.70
2019-04-03T14:17:03.874Z,973.64
2019-04-03T14:17:58.443Z,973.58
2019-04-03T14:21:02.662Z,973.57
2019-04-03T14:21:47.619Z,973.55
2019-04-03T14:22:39.044Z,973.45
2019-04-03T14:23:50.835Z,973.42
2019-04-03T14:26:06.993Z,973.34
2019-04-03T14:27:26.598Z,973.36
2019-04-03T14:28:22.959Z,973.37
2019-04-03T14:29:04.253Z,973.28
2019-04-03T14:31:41.666Z,973.22
2019-04-03T14:32:56.286Z,973.23
2019-04-03T14:35:39.014Z,973.22
2019-04-03T14:36:04.844Z,973.24
2019-04-03T14:37:07.512Z,973.21
2019-04-03T14:38:20.526Z,973.19
2019-04-03T14:39:07.180Z,973.15
2019-04-03T14:42:14.511Z,973.23
2019-04-03T14:43:11.430Z,973.26
2019-04-03T14:44:02.022Z,973.27
2019-04-03T14:44:41.797Z,973.32
2019-04-03T14:45:44.471Z,973.33
2019-04-03T14:47:03.970Z,973.27
2019-04-03T14:48:03.958Z,973.30
2019-04-03T14:48:46.105Z,973.30
2019-04-03T14:49:42.951Z,973.26
2019-04-03T14:51:10.871Z,973.23
2019-04-03T14:52:04.134Z,973.20
2019-04-03T14:53:06.405Z,973.19
2019-04-03T14:54:03.448Z,973.16
2019-04-03T14:54:51.638Z,973.12
2019-04-03T14:55:56.260Z,973.11
2019-04-03T14:56:43.976Z,973.01
2019-04-03T14:59:19.654Z,973.11
2019-04-03T15:00:28.787Z,973.11
2019-04-03T15:01:35.167Z,973.07
2019-04-03T15:02:16.083Z,973.09
2019-04-03T15:03:13.696Z,973.11
2019-04-03T15:04:21.134Z,973.09
2019-04-03T15:05:15.614Z,973.07
2019-04-03T15:06:15.100Z,973.02
2019-04-03T15:07:25.700Z,973.07
2019-04-03T15:08:15.105Z,973.01
2019-04-03T15:09:18.110Z,972.98
2019-04-03T15:10:14.931Z,972.96
2019-04-03T15:11:38.726Z,972.90
2019-04-03T15:12:14.913Z,972.84
2019-04-03T15:13:17.613Z,972.82
2019-04-03T15:14:17.687Z,972.81
2019-04-03T15:15:40.141Z,972.78
2019-04-03T15:16:19.621Z,972.78
2019-04-03T15:17:20.589Z,972.80
2019-04-03T15:18:18.663Z,972.81
2019-04-03T15:19:18.116Z,972.81
2019-04-03T15:20:42.410Z,972.79
2019-04-03T15:21:42.022Z,972.72
2019-04-03T15:22:22.426Z,972.70
2019-04-03T15:23:21.945Z,972.69
2019-04-03T15:24:42.257Z,972.74
2019-04-03T15:25:33.080Z,972.79
2019-04-03T15:26:21.759Z,972.80
2019-04-03T15:27:19.577Z,972.78